Aérodrome :
LOGIN :

S'inscrire | Disclaimer

   EN    FR    IT 

 










Légende :    VFR   VFR Marginal   IFR   IFR Intensif   IFR Très Intensif
Visi : 
Plafond : 
>= 8 km
>= 3000ft
5 à 8 km
1000 à 3000 ft
1500m à 5 km
500 à 1000 ft
800 à 1500m
200 à 500 ft
< 800m
< 200 ft
Symboles :   Orages  Brouillard  Fortes neiges  Fortes précipitations  Vent > 20 kt
SIGMETs :   Divers  Orages  Givrage  Turbulence  Onde Orograph.  Cendres Volcan.







- Altitude de l'aérodrome : 86 ft


LERT - Rota Navy

DERNIER METAR :
  • 151600Z 22019KT 180V240 2000 -RADZ FEW009 BKN014 18/17 Q1011 NOSIG

METARs EXPIRÉS :
  • 151519Z 21020KT 4000 -RADZ BKN026 BKN042 19/16 Q1011 NOSIG
  • 151500Z 21019KT 170V230 9999 SCT028 BKN040 20/15 Q1011 NOSIG
  • 151400Z 20016KT 170V230 9999 -DZ FEW030 OVC035 20/14 Q1012 NOSIG

TAF TAF LERT
Valide du 15 à 15h jusqu'au 16 à 00h UTC


151400Z 1515/1524 21016KT 9999 SCT025 BKN035
PROB40
TEMPO 1515/1520 21018G28KT
TEMPO 1516/1521 4000 RA BKN014
BECMG 1518/1520 30010KT
Pas de NOTAMs connus pour ce terrain.



MET'MAP, la Météo Aéronautique d'un coup d'oeil ! - Copyright ORBIFLY Décembre 2007 - Disclaimer

ORBIFLY MET'MAP TEAM :

Programmation & Développement : Alexandra Zaïnal
Conception & Développement : Baudouin d'Aumeries
Co-Programmation & Développement : Marc-Olivier Méhu
Soutien technique & logistique : Manuel Goepfert

Contact : metmap@orbifly.com




SOURCES & CREDITS :

   NOAA